Time;durP1;ratioP1;P1;durP2;ratioP2;P2;SDS_P1;SDS_P2;PMS_P1;PMS_P2;Temp;Humidity;BMP_temperature;BMP_pressure;BME280_temperature;BME280_humidity;BME280_pressure;Samples;Min_cycle;Max_cycle;Signal;HPM_P1;HPM_P2
2022/01/12 00:00:13;;;;;;;8.77;5.47;;;;;;;;;;4981323;28;20026;-88
2022/01/12 00:02:38;;;;;;;9.88;5.93;;;;;;;;;;5000034;28;20076;-89
2022/01/12 00:05:04;;;;;;;13.13;7.57;;;;;;;;;;4999510;28;20030;-86
2022/01/12 00:07:29;;;;;;;14.50;7.88;;;;;;;;;;4984594;28;20030;-89
2022/01/12 00:09:54;;;;;;;13.90;8.13;;;;;;;;;;5001704;28;20030;-89
2022/01/12 00:12:20;;;;;;;10.98;6.57;;;;;;;;;;5002854;28;20026;-87
2022/01/12 00:14:45;;;;;;;9.88;6.13;;;;;;;;;;4992320;28;20085;-84
2022/01/12 00:17:10;;;;;;;8.30;5.88;;;;;;;;;;4996865;28;20026;-82
2022/01/12 00:19:36;;;;;;;13.13;6.13;;;;;;;;;;5008058;28;20132;-89
2022/01/12 00:22:01;;;;;;;12.80;6.35;;;;;;;;;;4977666;28;20049;-85
2022/01/12 00:24:39;;;;;;;11.27;6.38;;;;;;;;;;4993451;28;20049;-84
2022/01/12 00:35:17;;;;;;;12.18;5.72;;;;;;;;;;4993670;28;20036;-87
2022/01/12 00:37:42;;;;;;;8.75;5.85;;;;;;;;;;4999808;28;20150;-89
2022/01/12 00:40:08;;;;;;;11.65;6.53;;;;;;;;;;4998055;28;20008;-79
2022/01/12 00:42:33;;;;;;;9.40;5.18;;;;;;;;;;5017934;28;20018;-84
2022/01/12 00:45:01;;;;;;;11.23;5.78;;;;;;;;;;5002314;28;20049;-85
2022/01/12 00:47:27;;;;;;;10.55;6.22;;;;;;;;;;4995995;28;20112;-86
2022/01/12 00:49:52;;;;;;;8.15;5.45;;;;;;;;;;5013762;28;20026;-87
2022/01/12 00:52:18;;;;;;;12.18;6.45;;;;;;;;;;5019116;28;20061;-85
2022/01/12 00:54:43;;;;;;;10.52;5.47;;;;;;;;;;5023916;28;20033;-86
2022/01/12 00:57:08;;;;;;;9.95;6.07;;;;;;;;;;5016600;28;20026;-83
2022/01/12 00:59:34;;;;;;;9.15;5.50;;;;;;;;;;5013022;28;20038;-87
2022/01/12 01:02:04;;;;;;;10.82;5.88;;;;;;;;;;5010061;28;20109;-84
2022/01/12 01:04:29;;;;;;;9.13;5.32;;;;;;;;;;4997599;28;20006;-86
2022/01/12 01:06:55;;;;;;;10.80;5.50;;;;;;;;;;5011585;28;20026;-85
2022/01/12 01:09:20;;;;;;;11.98;5.70;;;;;;;;;;4984525;28;20061;-87
2022/01/12 01:11:45;;;;;;;9.85;4.85;;;;;;;;;;4998621;28;20026;-87
2022/01/12 01:14:21;;;;;;;8.15;5.45;;;;;;;;;;5008248;28;20098;-85
2022/01/12 01:17:04;;;;;;;10.13;5.85;;;;;;;;;;5002033;28;20441;-87
2022/01/12 01:27:41;;;;;;;8.82;5.53;;;;;;;;;;5016787;28;20033;-86
2022/01/12 01:30:06;;;;;;;7.05;5.28;;;;;;;;;;4999306;28;20030;-86
2022/01/12 01:32:32;;;;;;;12.30;5.15;;;;;;;;;;5014158;28;20034;-83
2022/01/12 01:34:57;;;;;;;8.80;5.38;;;;;;;;;;5012171;28;20491;-86
2022/01/12 01:37:23;;;;;;;11.02;5.97;;;;;;;;;;4996818;28;20084;-86
2022/01/12 01:39:49;;;;;;;12.68;5.72;;;;;;;;;;4978974;28;20026;-88
2022/01/12 01:42:22;;;;;;;9.05;5.35;;;;;;;;;;4978923;28;20037;-85
2022/01/12 01:55:28;;;;;;;12.60;6.40;;;;;;;;;;4999124;28;20080;-87
2022/01/12 01:57:54;;;;;;;8.55;5.95;;;;;;;;;;4995649;28;20085;-89
2022/01/12 02:00:23;;;;;;;8.88;5.75;;;;;;;;;;4990818;28;20038;-87
2022/01/12 02:02:51;;;;;;;12.43;5.68;;;;;;;;;;4995567;28;20101;-88
2022/01/12 02:05:16;;;;;;;7.70;5.05;;;;;;;;;;4991287;28;20101;-87
2022/01/12 02:07:43;;;;;;;10.05;6.18;;;;;;;;;;4995605;28;20112;-90
2022/01/12 02:10:09;;;;;;;12.27;6.22;;;;;;;;;;4995524;28;20119;-89
2022/01/12 02:12:35;;;;;;;13.15;6.50;;;;;;;;;;4978190;28;20026;-87
2022/01/12 02:15:01;;;;;;;11.27;5.60;;;;;;;;;;4994167;28;20037;-87
2022/01/12 02:17:41;;;;;;;10.85;6.22;;;;;;;;;;4995890;28;20240;-89
2022/01/12 02:36:28;;;;;;;13.50;6.05;;;;;;;;;;4994694;28;20068;-87
2022/01/12 02:41:39;;;;;;;10.80;6.50;;;;;;;;;;4996475;28;20053;-87
2022/01/12 02:54:52;;;;;;;11.98;6.32;;;;;;;;;;5007449;28;20188;-88
2022/01/12 02:57:18;;;;;;;12.48;6.13;;;;;;;;;;4980798;28;20373;-88
2022/01/12 03:02:30;;;;;;;17.75;6.63;;;;;;;;;;5006990;28;20044;-88
2022/01/12 03:07:37;;;;;;;9.15;5.95;;;;;;;;;;5016484;28;20026;-84
2022/01/12 03:10:05;;;;;;;11.15;5.97;;;;;;;;;;5016300;28;20009;-82
2022/01/12 03:12:30;;;;;;;11.73;6.03;;;;;;;;;;5004120;28;20064;-87
2022/01/12 03:14:56;;;;;;;11.23;6.22;;;;;;;;;;4977661;28;20501;-86
2022/01/12 03:17:24;;;;;;;12.80;6.47;;;;;;;;;;5007865;28;20033;-85
2022/01/12 03:19:50;;;;;;;9.80;6.13;;;;;;;;;;4975987;28;20014;-86
2022/01/12 03:22:15;;;;;;;11.90;6.93;;;;;;;;;;4998677;28;20022;-87
2022/01/12 03:24:42;;;;;;;10.27;5.60;;;;;;;;;;5022878;28;20081;-85
2022/01/12 03:27:12;;;;;;;11.90;6.63;;;;;;;;;;5028431;28;20022;-88
2022/01/12 03:29:41;;;;;;;9.30;5.97;;;;;;;;;;5004638;28;20090;-89
2022/01/12 03:32:07;;;;;;;10.15;6.75;;;;;;;;;;5001133;28;20028;-86
2022/01/12 03:34:34;;;;;;;11.98;6.90;;;;;;;;;;5014368;28;20046;-86
2022/01/12 03:37:39;;;;;;;11.93;6.13;;;;;;;;;;4980912;28;20514;-88
2022/01/12 03:40:04;;;;;;;12.20;6.25;;;;;;;;;;4998344;28;20022;-89
2022/01/12 03:42:30;;;;;;;13.65;6.55;;;;;;;;;;4998917;28;20030;-88
2022/01/12 03:44:55;;;;;;;11.15;6.00;;;;;;;;;;4992413;28;20025;-85
2022/01/12 03:47:20;;;;;;;8.02;5.50;;;;;;;;;;4999915;28;20045;-89
2022/01/12 03:49:46;;;;;;;9.88;6.25;;;;;;;;;;4982089;28;20022;-88
2022/01/12 03:52:12;;;;;;;14.82;6.15;;;;;;;;;;4999240;28;20019;-87
2022/01/12 03:54:38;;;;;;;11.00;5.90;;;;;;;;;;5007472;28;20030;-86
2022/01/12 03:57:04;;;;;;;8.68;5.65;;;;;;;;;;5000050;28;20050;-88
2022/01/12 03:59:29;;;;;;;11.35;6.13;;;;;;;;;;5000165;28;20490;-88
2022/01/12 04:01:55;;;;;;;11.38;6.78;;;;;;;;;;5005089;28;20030;-86
2022/01/12 04:04:29;;;;;;;10.52;5.72;;;;;;;;;;4997103;28;20052;-87
2022/01/12 04:09:39;;;;;;;9.57;5.85;;;;;;;;;;5007283;28;20096;-87
2022/01/12 04:12:04;;;;;;;9.55;6.03;;;;;;;;;;4998024;28;20467;-88
2022/01/12 04:14:30;;;;;;;9.98;6.10;;;;;;;;;;5002301;28;20446;-86
2022/01/12 04:16:55;;;;;;;12.15;6.57;;;;;;;;;;4990409;28;20069;-87
2022/01/12 04:19:23;;;;;;;12.80;6.45;;;;;;;;;;4996205;28;20026;-88
2022/01/12 04:21:49;;;;;;;12.43;6.50;;;;;;;;;;5000254;28;20549;-85
2022/01/12 04:24:15;;;;;;;14.60;6.45;;;;;;;;;;4991476;28;20046;-90
2022/01/12 04:26:41;;;;;;;11.15;6.68;;;;;;;;;;4983282;28;20065;-87
2022/01/12 04:29:07;;;;;;;10.27;6.57;;;;;;;;;;4986127;28;20030;-89
2022/01/12 04:31:34;;;;;;;15.02;6.95;;;;;;;;;;5011760;28;20026;-87
2022/01/12 04:34:00;;;;;;;10.63;6.00;;;;;;;;;;5019091;28;20030;-89
2022/01/12 04:36:25;;;;;;;10.45;6.55;;;;;;;;;;5000705;28;20030;-88
2022/01/12 04:38:50;;;;;;;11.82;6.35;;;;;;;;;;4984033;28;20023;-87
2022/01/12 04:41:16;;;;;;;9.80;5.80;;;;;;;;;;5000053;28;20381;-88
2022/01/12 04:43:43;;;;;;;10.63;6.25;;;;;;;;;;5006458;28;20030;-87
2022/01/12 04:46:22;;;;;;;12.77;6.93;;;;;;;;;;4999167;28;20125;-88
2022/01/12 04:48:52;;;;;;;13.13;7.35;;;;;;;;;;4999161;28;20076;-88
2022/01/12 04:51:19;;;;;;;11.68;6.75;;;;;;;;;;5000177;28;20503;-88
2022/01/12 04:53:44;;;;;;;13.90;7.53;;;;;;;;;;5006995;28;20026;-87
2022/01/12 04:56:10;;;;;;;10.55;6.65;;;;;;;;;;5003745;28;20029;-88
2022/01/12 04:58:35;;;;;;;10.05;6.45;;;;;;;;;;4999440;28;20473;-85
2022/01/12 05:01:08;;;;;;;12.65;7.18;;;;;;;;;;4981714;28;20022;-87
2022/01/12 05:06:36;;;;;;;10.18;6.35;;;;;;;;;;5002231;28;20025;-86
2022/01/12 05:14:19;;;;;;;9.82;5.68;;;;;;;;;;5003033;28;19924;-87
2022/01/12 05:16:44;;;;;;;9.48;6.20;;;;;;;;;;5002598;28;20022;-86
2022/01/12 05:19:10;;;;;;;11.13;6.72;;;;;;;;;;4996488;28;20022;-88
2022/01/12 05:21:36;;;;;;;10.18;5.75;;;;;;;;;;5003579;28;20032;-87
2022/01/12 05:24:06;;;;;;;10.10;6.63;;;;;;;;;;5006318;28;20026;-87
2022/01/12 05:26:32;;;;;;;11.40;6.45;;;;;;;;;;4997432;28;20025;-86
2022/01/12 05:28:58;;;;;;;12.98;6.40;;;;;;;;;;5000779;28;20033;-86
2022/01/12 05:31:24;;;;;;;10.57;6.47;;;;;;;;;;5004232;28;20030;-85
2022/01/12 05:33:49;;;;;;;14.02;6.75;;;;;;;;;;5003880;28;20063;-88
2022/01/12 05:36:17;;;;;;;13.57;7.35;;;;;;;;;;4986459;28;20022;-86
2022/01/12 05:38:43;;;;;;;13.38;6.93;;;;;;;;;;5017797;28;20010;-82
2022/01/12 05:41:08;;;;;;;12.55;7.03;;;;;;;;;;5016860;28;20089;-82
2022/01/12 05:43:36;;;;;;;11.98;6.35;;;;;;;;;;5004328;28;20082;-85
2022/01/12 05:46:13;;;;;;;13.02;6.57;;;;;;;;;;4986626;28;20010;-86
2022/01/12 05:51:29;;;;;;;10.73;5.95;;;;;;;;;;5022555;28;20501;-85
2022/01/12 05:53:54;;;;;;;10.32;6.28;;;;;;;;;;5011337;28;20475;-83
2022/01/12 05:56:20;;;;;;;13.88;6.47;;;;;;;;;;5029500;28;20041;-87
2022/01/12 05:58:45;;;;;;;14.13;7.03;;;;;;;;;;5024612;28;20022;-82
2022/01/12 06:01:11;;;;;;;15.88;6.90;;;;;;;;;;5032461;28;20023;-82
2022/01/12 06:03:36;;;;;;;12.65;5.88;;;;;;;;;;4993365;28;20560;-85
2022/01/12 06:06:02;;;;;;;15.65;6.53;;;;;;;;;;4996662;28;20022;-86
2022/01/12 06:08:28;;;;;;;10.90;6.85;;;;;;;;;;4977723;28;20038;-85
2022/01/12 06:10:53;;;;;;;11.93;6.35;;;;;;;;;;4977562;28;20026;-85
2022/01/12 06:13:18;;;;;;;10.25;6.32;;;;;;;;;;5003183;28;20488;-85
2022/01/12 06:15:44;;;;;;;12.85;6.68;;;;;;;;;;4979291;28;20034;-85
2022/01/12 06:18:09;;;;;;;13.63;6.53;;;;;;;;;;4989025;28;20034;-89
2022/01/12 06:20:34;;;;;;;12.68;7.05;;;;;;;;;;4993432;28;20033;-87
2022/01/12 06:23:00;;;;;;;22.23;6.63;;;;;;;;;;4990315;28;20030;-80
2022/01/12 06:25:25;;;;;;;13.45;6.68;;;;;;;;;;4999201;28;20056;-87
2022/01/12 06:27:55;;;;;;;12.13;6.25;;;;;;;;;;4979965;28;20030;-87
2022/01/12 06:32:55;;;;;;;9.48;6.47;;;;;;;;;;4997174;28;20030;-82
2022/01/12 06:35:21;;;;;;;12.15;7.07;;;;;;;;;;4981930;28;20052;-84
2022/01/12 06:37:46;;;;;;;10.32;6.30;;;;;;;;;;4998734;28;20424;-88
2022/01/12 06:40:13;;;;;;;16.02;5.55;;;;;;;;;;4981640;28;20026;-89
2022/01/12 06:42:38;;;;;;;10.27;6.18;;;;;;;;;;4980870;28;20052;-84
2022/01/12 06:45:05;;;;;;;15.25;6.63;;;;;;;;;;4996411;28;20114;-89
2022/01/12 06:47:30;;;;;;;9.93;5.78;;;;;;;;;;4999435;28;20022;-88
2022/01/12 06:49:55;;;;;;;11.07;5.90;;;;;;;;;;4999871;28;20053;-86
2022/01/12 06:52:21;;;;;;;13.18;7.00;;;;;;;;;;4981832;28;20603;-88
2022/01/12 06:54:46;;;;;;;11.95;6.75;;;;;;;;;;5000647;28;20035;-84
2022/01/12 06:57:12;;;;;;;11.10;6.80;;;;;;;;;;4990376;28;20018;-83
2022/01/12 06:59:37;;;;;;;12.25;6.53;;;;;;;;;;4995149;28;20048;-86
2022/01/12 07:02:03;;;;;;;12.38;6.80;;;;;;;;;;5005909;28;20022;-85
2022/01/12 07:04:28;;;;;;;12.13;6.38;;;;;;;;;;4982971;28;20019;-84
2022/01/12 07:06:53;;;;;;;10.40;6.38;;;;;;;;;;4995170;28;20027;-88
2022/01/12 07:09:19;;;;;;;11.20;6.53;;;;;;;;;;4984906;28;20053;-82
2022/01/12 07:11:44;;;;;;;12.18;6.75;;;;;;;;;;4993659;28;20033;-86
2022/01/12 07:14:10;;;;;;;13.50;6.60;;;;;;;;;;4979859;28;20022;-88
2022/01/12 07:16:35;;;;;;;11.15;6.70;;;;;;;;;;4998748;28;20080;-87
2022/01/12 07:19:00;;;;;;;15.77;7.65;;;;;;;;;;4998749;28;20467;-88
2022/01/12 07:21:26;;;;;;;13.98;6.97;;;;;;;;;;4979899;28;20612;-87
2022/01/12 07:23:54;;;;;;;10.32;6.53;;;;;;;;;;4992883;28;20097;-88
2022/01/12 07:26:21;;;;;;;16.48;6.70;;;;;;;;;;4996707;28;20081;-88
2022/01/12 07:28:47;;;;;;;10.55;6.35;;;;;;;;;;4979242;28;20057;-86
2022/01/12 07:31:12;;;;;;;12.20;6.50;;;;;;;;;;4979667;28;20023;-87
2022/01/12 07:33:38;;;;;;;15.00;7.88;;;;;;;;;;4996749;28;20037;-85
2022/01/12 07:36:03;;;;;;;10.70;6.55;;;;;;;;;;4998123;28;20031;-89
2022/01/12 07:38:29;;;;;;;12.23;6.72;;;;;;;;;;4999452;28;20487;-88
2022/01/12 07:40:54;;;;;;;11.65;6.78;;;;;;;;;;4999701;28;20109;-87
2022/01/12 07:43:20;;;;;;;13.13;6.68;;;;;;;;;;4997055;28;20030;-89
2022/01/12 07:45:45;;;;;;;25.08;13.75;;;;;;;;;;4996305;28;20088;-89
2022/01/12 07:48:12;;;;;;;23.02;11.57;;;;;;;;;;4983006;28;20032;-85
2022/01/12 07:50:38;;;;;;;14.73;8.52;;;;;;;;;;4982698;28;20037;-88
2022/01/12 07:53:03;;;;;;;13.48;7.40;;;;;;;;;;4981667;28;20034;-88
2022/01/12 07:55:29;;;;;;;17.10;8.48;;;;;;;;;;4982961;28;20025;-89
2022/01/12 07:57:54;;;;;;;16.55;8.55;;;;;;;;;;5000398;28;20036;-88
2022/01/12 08:00:20;;;;;;;15.05;8.52;;;;;;;;;;4997962;28;20026;-87
2022/01/12 08:02:45;;;;;;;15.65;8.93;;;;;;;;;;4998735;28;20545;-87
2022/01/12 08:05:11;;;;;;;12.70;8.32;;;;;;;;;;4996578;28;20026;-88
2022/01/12 08:07:38;;;;;;;19.40;9.20;;;;;;;;;;4998302;28;20026;-87
2022/01/12 08:10:06;;;;;;;13.98;8.38;;;;;;;;;;4998936;28;20026;-86
2022/01/12 08:12:31;;;;;;;17.73;9.65;;;;;;;;;;4997124;28;20037;-83
2022/01/12 08:14:57;;;;;;;15.40;9.88;;;;;;;;;;5000686;28;20034;-85
2022/01/12 08:17:22;;;;;;;17.90;9.63;;;;;;;;;;5006463;28;20094;-85
2022/01/12 08:19:47;;;;;;;18.70;9.88;;;;;;;;;;4995301;28;20112;-85
2022/01/12 08:22:13;;;;;;;20.63;9.88;;;;;;;;;;4988895;28;20037;-86
2022/01/12 08:24:38;;;;;;;16.92;9.07;;;;;;;;;;5006208;28;20022;-86
2022/01/12 08:27:04;;;;;;;14.70;8.55;;;;;;;;;;5024701;28;20094;-86
2022/01/12 08:29:30;;;;;;;16.35;8.98;;;;;;;;;;5011525;28;20480;-86
2022/01/12 08:31:56;;;;;;;13.82;9.30;;;;;;;;;;5003960;28;20022;-86
2022/01/12 08:34:22;;;;;;;19.23;10.35;;;;;;;;;;5002855;28;20468;-87
2022/01/12 08:36:47;;;;;;;16.30;9.05;;;;;;;;;;5003654;28;20050;-86
2022/01/12 08:39:13;;;;;;;20.17;10.05;;;;;;;;;;5002313;28;20030;-87
2022/01/12 08:41:38;;;;;;;16.60;9.57;;;;;;;;;;5003621;28;20038;-86
2022/01/12 08:44:08;;;;;;;17.27;9.45;;;;;;;;;;5004115;28;20030;-86
2022/01/12 08:46:34;;;;;;;17.83;9.75;;;;;;;;;;4998175;28;20011;-87
2022/01/12 08:48:59;;;;;;;25.20;10.93;;;;;;;;;;5019625;28;20289;-85
2022/01/12 08:51:28;;;;;;;18.95;10.18;;;;;;;;;;5002455;28;20049;-85
2022/01/12 08:53:53;;;;;;;20.38;9.95;;;;;;;;;;5002047;28;20026;-85
2022/01/12 08:56:19;;;;;;;25.20;10.60;;;;;;;;;;5001357;28;20395;-83
2022/01/12 08:58:45;;;;;;;16.23;9.30;;;;;;;;;;5002077;28;20441;-87
2022/01/12 09:01:11;;;;;;;16.05;10.40;;;;;;;;;;5004865;28;20022;-86
2022/01/12 09:03:38;;;;;;;18.88;9.80;;;;;;;;;;5001818;28;20036;-86
2022/01/12 09:06:05;;;;;;;21.75;10.52;;;;;;;;;;5002072;28;20029;-85
2022/01/12 09:08:31;;;;;;;18.55;10.10;;;;;;;;;;5000868;28;20105;-86
2022/01/12 09:10:56;;;;;;;16.98;9.80;;;;;;;;;;4983650;28;20030;-86
2022/01/12 09:13:21;;;;;;;17.60;9.50;;;;;;;;;;5001344;28;20083;-86
2022/01/12 09:15:47;;;;;;;17.27;10.52;;;;;;;;;;5001256;28;20026;-87
2022/01/12 09:18:12;;;;;;;16.80;10.48;;;;;;;;;;5000633;28;20472;-88
2022/01/12 09:20:38;;;;;;;17.77;10.40;;;;;;;;;;4966776;28;20034;-87
2022/01/12 09:23:04;;;;;;;22.50;11.18;;;;;;;;;;5002663;28;20131;-86
2022/01/12 09:25:32;;;;;;;18.83;9.50;;;;;;;;;;5020078;28;20014;-87
2022/01/12 09:28:01;;;;;;;18.13;9.90;;;;;;;;;;5001345;28;20030;-87
2022/01/12 09:30:27;;;;;;;20.02;10.65;;;;;;;;;;5000903;28;20404;-86
2022/01/12 09:32:52;;;;;;;17.77;9.73;;;;;;;;;;5017440;28;20064;-86
2022/01/12 09:35:17;;;;;;;10.70;6.55;;;;;;;;;;5001616;28;20496;-86
2022/01/12 09:37:43;;;;;;;20.55;11.75;;;;;;;;;;5003486;28;20077;-88
2022/01/12 09:40:09;;;;;;;19.15;10.25;;;;;;;;;;4995734;28;20010;-86
2022/01/12 09:42:35;;;;;;;16.88;10.20;;;;;;;;;;5010843;28;20026;-86
2022/01/12 09:45:02;;;;;;;16.15;9.63;;;;;;;;;;5007970;28;20071;-87
2022/01/12 09:47:28;;;;;;;23.05;11.40;;;;;;;;;;5001408;28;20407;-88
2022/01/12 09:49:53;;;;;;;22.20;11.50;;;;;;;;;;5000728;28;20058;-86
2022/01/12 09:52:19;;;;;;;18.05;10.50;;;;;;;;;;5000453;28;20022;-87
2022/01/12 09:54:45;;;;;;;16.48;9.23;;;;;;;;;;5002489;28;20097;-86
2022/01/12 09:57:10;;;;;;;19.27;10.50;;;;;;;;;;5001638;28;20029;-86
2022/01/12 09:59:36;;;;;;;14.82;9.18;;;;;;;;;;4990684;28;20498;-87
2022/01/12 10:02:02;;;;;;;18.15;10.85;;;;;;;;;;5005780;28;20503;-88
2022/01/12 10:04:34;;;;;;;17.20;9.98;;;;;;;;;;5013975;28;20015;-86
2022/01/12 10:07:02;;;;;;;20.45;10.05;;;;;;;;;;4989704;28;20027;-87
2022/01/12 10:09:34;;;;;;;19.92;11.40;;;;;;;;;;4989485;28;20041;-85
2022/01/12 10:12:04;;;;;;;25.33;11.43;;;;;;;;;;4996174;28;20015;-85
2022/01/12 10:14:42;;;;;;;19.90;10.93;;;;;;;;;;5010873;28;20132;-84
2022/01/12 10:17:09;;;;;;;18.33;10.10;;;;;;;;;;5003388;28;20026;-86
2022/01/12 10:19:35;;;;;;;17.10;9.50;;;;;;;;;;5005733;28;20041;-86
2022/01/12 10:22:04;;;;;;;17.92;10.57;;;;;;;;;;4993394;28;20030;-85
2022/01/12 10:24:29;;;;;;;17.05;9.95;;;;;;;;;;4977743;28;20045;-85
2022/01/12 10:26:56;;;;;;;17.23;10.75;;;;;;;;;;5014733;28;20022;-86
2022/01/12 10:29:24;;;;;;;22.77;9.98;;;;;;;;;;5014986;28;20041;-84
2022/01/12 10:32:03;;;;;;;17.00;10.48;;;;;;;;;;5011966;28;20033;-85
2022/01/12 10:34:41;;;;;;;18.35;10.60;;;;;;;;;;5003153;28;20030;-86
2022/01/12 10:37:12;;;;;;;17.73;10.60;;;;;;;;;;5000590;28;20423;-86
2022/01/12 10:39:43;;;;;;;19.40;10.65;;;;;;;;;;5016529;28;20069;-86
2022/01/12 10:42:26;;;;;;;19.35;10.90;;;;;;;;;;4998244;28;20516;-86
2022/01/12 10:44:57;;;;;;;14.32;8.73;;;;;;;;;;5009361;28;20066;-85
2022/01/12 10:47:27;;;;;;;17.13;10.57;;;;;;;;;;5002906;28;20032;-86
2022/01/12 10:49:52;;;;;;;19.00;10.70;;;;;;;;;;4990110;28;20030;-86
2022/01/12 10:52:18;;;;;;;18.27;10.85;;;;;;;;;;4982725;28;20028;-87
2022/01/12 10:54:46;;;;;;;18.42;10.35;;;;;;;;;;5001912;28;20092;-86
2022/01/12 10:57:21;;;;;;;16.70;10.32;;;;;;;;;;5008010;28;20048;-86
2022/01/12 11:00:26;;;;;;;21.13;10.98;;;;;;;;;;4997921;28;20399;-85
2022/01/12 11:02:54;;;;;;;17.92;10.50;;;;;;;;;;4984235;28;20111;-86
2022/01/12 11:05:21;;;;;;;16.08;9.40;;;;;;;;;;5003420;28;20450;-87
2022/01/12 11:07:46;;;;;;;15.50;9.02;;;;;;;;;;4985901;28;20048;-84
2022/01/12 11:10:12;;;;;;;14.95;9.65;;;;;;;;;;4987614;28;20433;-86
2022/01/12 11:12:39;;;;;;;17.65;10.10;;;;;;;;;;4988688;28;20463;-85
2022/01/12 11:15:06;;;;;;;13.40;8.98;;;;;;;;;;4990093;28;20061;-86
2022/01/12 11:17:32;;;;;;;17.45;9.77;;;;;;;;;;5006144;28;20089;-85
2022/01/12 11:20:20;;;;;;;13.07;8.50;;;;;;;;;;4988823;28;20089;-88
2022/01/12 11:22:55;;;;;;;19.52;9.23;;;;;;;;;;4991189;28;20098;-86
2022/01/12 11:25:25;;;;;;;19.23;9.68;;;;;;;;;;5014537;28;20021;-87
2022/01/12 11:28:09;;;;;;;13.43;8.13;;;;;;;;;;5014542;28;20026;-88
2022/01/12 11:30:37;;;;;;;15.48;8.75;;;;;;;;;;5005931;28;20026;-85
2022/01/12 11:33:09;;;;;;;11.25;6.88;;;;;;;;;;5005171;28;20023;-85
2022/01/12 11:35:39;;;;;;;7.95;5.60;;;;;;;;;;4986863;28;20045;-86
2022/01/12 11:38:05;;;;;;;14.13;8.07;;;;;;;;;;5003934;28;20030;-85
2022/01/12 11:40:42;;;;;;;13.73;8.15;;;;;;;;;;5003553;28;20030;-85
2022/01/12 11:43:18;;;;;;;13.52;7.78;;;;;;;;;;5006062;28;20037;-89
2022/01/12 11:45:44;;;;;;;13.38;8.18;;;;;;;;;;4990457;28;20018;-85
2022/01/12 11:48:09;;;;;;;10.25;7.03;;;;;;;;;;5006734;28;20040;-86
2022/01/12 11:50:34;;;;;;;13.50;8.35;;;;;;;;;;5007688;28;20022;-85
2022/01/12 11:53:00;;;;;;;13.27;8.25;;;;;;;;;;4990996;28;20451;-85
2022/01/12 11:55:37;;;;;;;19.33;7.97;;;;;;;;;;4991226;28;20022;-86
2022/01/12 11:58:04;;;;;;;13.77;8.02;;;;;;;;;;5009531;28;20113;-85
2022/01/12 12:00:30;;;;;;;13.52;6.15;;;;;;;;;;5009624;28;20036;-86
2022/01/12 12:02:57;;;;;;;13.82;8.15;;;;;;;;;;5009114;28;20022;-86
2022/01/12 12:05:30;;;;;;;10.18;6.55;;;;;;;;;;5008854;28;20022;-84
2022/01/12 12:08:02;;;;;;;16.20;9.30;;;;;;;;;;5007710;28;20366;-87
2022/01/12 12:10:30;;;;;;;6.53;5.22;;;;;;;;;;4998513;28;20022;-86
2022/01/12 12:12:57;;;;;;;15.15;6.65;;;;;;;;;;5011213;28;20034;-86
2022/01/12 12:15:24;;;;;;;13.63;8.10;;;;;;;;;;5028309;28;20337;-86
2022/01/12 12:17:51;;;;;;;12.68;7.15;;;;;;;;;;4992865;28;20017;-86
2022/01/12 12:20:20;;;;;;;12.60;6.75;;;;;;;;;;4988263;28;20050;-83
2022/01/12 12:22:47;;;;;;;12.10;7.47;;;;;;;;;;5007318;28;20022;-84
2022/01/12 12:25:22;;;;;;;14.38;7.45;;;;;;;;;;4990597;28;20061;-87
2022/01/12 12:27:56;;;;;;;13.77;7.90;;;;;;;;;;4990318;28;20018;-87
2022/01/12 12:30:23;;;;;;;15.40;8.45;;;;;;;;;;4993414;28;20053;-86
2022/01/12 12:32:55;;;;;;;15.13;7.60;;;;;;;;;;5007795;28;20030;-86
2022/01/12 12:35:21;;;;;;;;;;;;;;;;;;4990917;28;20133;-85
2022/01/12 12:37:55;;;;;;;11.95;7.43;;;;;;;;;;4990527;28;19910;-85
2022/01/12 12:40:24;;;;;;;10.00;7.20;;;;;;;;;;4981088;28;20026;-84
2022/01/12 12:43:07;;;;;;;10.45;7.20;;;;;;;;;;5000622;28;20114;-87
2022/01/12 12:45:44;;;;;;;9.93;6.95;;;;;;;;;;4999281;28;20018;-86
2022/01/12 12:48:16;;;;;;;10.63;6.88;;;;;;;;;;5006019;28;20022;-84
2022/01/12 12:50:42;;;;;;;15.98;7.70;;;;;;;;;;5012171;28;20030;-82
2022/01/12 12:53:08;;;;;;;13.07;7.55;;;;;;;;;;4998823;28;20038;-85
2022/01/12 12:55:42;;;;;;;11.25;6.93;;;;;;;;;;5000899;28;20022;-85
2022/01/12 12:58:08;;;;;;;10.75;6.80;;;;;;;;;;5005592;28;20037;-86
2022/01/12 13:00:35;;;;;;;12.77;7.55;;;;;;;;;;5003736;28;20044;-85
2022/01/12 13:03:03;;;;;;;12.55;8.55;;;;;;;;;;5002943;28;20026;-84
2022/01/12 13:05:35;;;;;;;13.07;8.07;;;;;;;;;;4998203;28;20038;-85
2022/01/12 13:08:02;;;;;;;15.35;7.78;;;;;;;;;;5000185;28;20022;-85
2022/01/12 13:10:31;;;;;;;12.13;7.38;;;;;;;;;;4996150;28;20092;-87
2022/01/12 13:12:59;;;;;;;12.48;7.45;;;;;;;;;;4980794;28;20057;-85
2022/01/12 13:15:27;;;;;;;13.88;8.13;;;;;;;;;;4994281;28;20026;-86
2022/01/12 13:17:58;;;;;;;12.00;7.20;;;;;;;;;;4995557;28;20038;-85
2022/01/12 13:23:04;;;;;;;14.68;8.57;;;;;;;;;;4995776;28;20109;-86
2022/01/12 13:25:30;;;;;;;13.43;8.65;;;;;;;;;;4979004;28;20064;-87
2022/01/12 13:27:56;;;;;;;16.75;9.23;;;;;;;;;;4994405;28;20041;-85
2022/01/12 13:30:28;;;;;;;15.05;8.75;;;;;;;;;;4994626;28;20023;-85
2022/01/12 13:32:57;;;;;;;14.27;8.57;;;;;;;;;;4992420;28;20033;-86
2022/01/12 13:35:31;;;;;;;15.55;8.75;;;;;;;;;;4992080;28;20030;-86
2022/01/12 13:38:00;;;;;;;15.15;8.13;;;;;;;;;;4994781;28;20515;-85
2022/01/12 13:40:35;;;;;;;16.48;9.00;;;;;;;;;;4996355;28;20018;-84
2022/01/12 13:43:02;;;;;;;16.45;8.63;;;;;;;;;;5001742;28;20093;-84
2022/01/12 13:46:00;;;;;;;14.90;7.60;;;;;;;;;;4976717;28;20022;-86
2022/01/12 13:48:29;;;;;;;13.95;8.48;;;;;;;;;;4993296;28;20392;-85
2022/01/12 13:50:55;;;;;;;12.55;7.60;;;;;;;;;;4995413;28;20049;-85
2022/01/12 13:53:36;;;;;;;12.05;7.93;;;;;;;;;;4993036;28;20029;-85
2022/01/12 13:56:03;;;;;;;14.00;8.32;;;;;;;;;;4995271;28;20029;-84
2022/01/12 13:58:30;;;;;;;12.43;8.35;;;;;;;;;;4996455;28;20014;-84
2022/01/12 14:01:10;;;;;;;14.95;8.52;;;;;;;;;;4989400;28;20132;-84
2022/01/12 14:03:53;;;;;;;10.85;7.63;;;;;;;;;;4994672;28;20018;-84
2022/01/12 14:06:25;;;;;;;13.70;7.95;;;;;;;;;;4993951;28;20058;-83
2022/01/12 14:08:54;;;;;;;13.70;8.82;;;;;;;;;;4980832;28;20490;-85
2022/01/12 14:11:21;;;;;;;13.30;8.20;;;;;;;;;;5001252;28;20033;-84
2022/01/12 14:13:47;;;;;;;14.20;8.88;;;;;;;;;;4987021;28;20492;-83
2022/01/12 14:16:23;;;;;;;15.73;8.68;;;;;;;;;;4985282;28;20080;-84
2022/01/12 14:18:57;;;;;;;13.27;7.53;;;;;;;;;;4979253;28;20481;-85
2022/01/12 14:21:22;;;;;;;14.02;8.88;;;;;;;;;;4992995;28;20064;-84
2022/01/12 14:23:48;;;;;;;14.52;8.00;;;;;;;;;;5000200;28;20034;-85
2022/01/12 14:26:21;;;;;;;11.77;7.90;;;;;;;;;;4995576;28;20484;-83
2022/01/12 14:28:47;;;;;;;15.27;7.82;;;;;;;;;;4992158;28;20400;-84
2022/01/12 14:31:12;;;;;;;12.30;8.07;;;;;;;;;;4976457;28;20629;-85
2022/01/12 14:33:37;;;;;;;12.20;7.28;;;;;;;;;;4991404;28;20026;-85
2022/01/12 14:36:03;;;;;;;12.07;7.50;;;;;;;;;;4979255;28;20035;-87
2022/01/12 14:38:28;;;;;;;10.60;6.72;;;;;;;;;;4998689;28;20034;-87
2022/01/12 14:40:54;;;;;;;13.05;7.65;;;;;;;;;;4992473;28;20110;-85
2022/01/12 14:43:19;;;;;;;10.30;7.05;;;;;;;;;;4997844;28;20097;-85
2022/01/12 14:45:45;;;;;;;12.20;7.60;;;;;;;;;;4981190;28;20018;-88
2022/01/12 14:48:13;;;;;;;13.90;6.78;;;;;;;;;;4997488;28;20029;-87
2022/01/12 14:50:39;;;;;;;11.77;7.15;;;;;;;;;;4991655;28;20038;-86
2022/01/12 14:53:07;;;;;;;15.65;8.38;;;;;;;;;;4986006;28;20085;-84
2022/01/12 14:55:32;;;;;;;12.10;7.90;;;;;;;;;;5003219;28;20018;-84
2022/01/12 14:57:58;;;;;;;11.40;7.20;;;;;;;;;;4996920;28;20026;-87
2022/01/12 15:00:24;;;;;;;10.52;7.28;;;;;;;;;;4980573;28;20034;-86
2022/01/12 15:03:00;;;;;;;15.25;8.27;;;;;;;;;;4997313;28;20058;-86
2022/01/12 15:05:27;;;;;;;12.43;7.60;;;;;;;;;;5005724;28;20014;-86
2022/01/12 15:07:55;;;;;;;11.98;7.63;;;;;;;;;;5003291;28;20018;-84
2022/01/12 15:10:21;;;;;;;13.70;7.85;;;;;;;;;;5005134;28;20027;-84
2022/01/12 15:12:51;;;;;;;11.18;7.13;;;;;;;;;;5005669;28;20106;-84
2022/01/12 15:15:16;;;;;;;14.65;8.57;;;;;;;;;;4981805;28;20472;-86
2022/01/12 15:17:42;;;;;;;11.00;7.55;;;;;;;;;;4998800;28;20030;-86
2022/01/12 15:20:10;;;;;;;13.45;8.23;;;;;;;;;;4995266;28;20040;-85
2022/01/12 15:22:37;;;;;;;12.85;7.40;;;;;;;;;;5000674;28;20499;-86
2022/01/12 15:25:04;;;;;;;13.50;7.53;;;;;;;;;;4998436;28;20023;-84
2022/01/12 15:27:29;;;;;;;12.73;7.88;;;;;;;;;;4998601;28;20022;-84
2022/01/12 15:29:56;;;;;;;12.38;7.97;;;;;;;;;;4998451;28;20029;-84
2022/01/12 15:32:22;;;;;;;10.80;7.10;;;;;;;;;;5000211;28;20022;-86
2022/01/12 15:34:47;;;;;;;14.60;8.35;;;;;;;;;;4999589;28;20045;-86
2022/01/12 15:37:13;;;;;;;13.20;7.82;;;;;;;;;;4999584;28;20026;-85
2022/01/12 15:39:40;;;;;;;19.13;8.63;;;;;;;;;;5000343;28;20015;-86
2022/01/12 15:42:06;;;;;;;14.98;8.65;;;;;;;;;;4999518;28;20034;-86
2022/01/12 15:44:32;;;;;;;14.98;8.65;;;;;;;;;;4999734;28;20514;-85
2022/01/12 15:46:57;;;;;;;12.70;8.38;;;;;;;;;;4982486;28;20433;-86
2022/01/12 15:49:23;;;;;;;12.88;8.15;;;;;;;;;;4995986;28;20030;-85
2022/01/12 15:51:48;;;;;;;12.10;7.70;;;;;;;;;;4998396;28;20113;-85
2022/01/12 15:54:14;;;;;;;12.68;8.20;;;;;;;;;;4999588;28;20026;-84